Time;durP1;ratioP1;P1;durP2;ratioP2;P2;SDS_P1;SDS_P2;PMS_P1;PMS_P2;Temp;Humidity;BMP_temperature;BMP_pressure;BME280_temperature;BME280_humidity;BME280_pressure;Samples;Min_cycle;Max_cycle;Signal;HPM_P1;HPM_P2
2020/12/18 00:02:01;;;;;;;63.28;15.80;;;;;;;2.31;76.54;96568.53;5050908;28;20052;-45
2020/12/18 00:04:28;;;;;;;37.35;14.88;;;;;;;1.87;77.98;96576.09;5041245;28;20044;-45
2020/12/18 00:06:54;;;;;;;43.60;15.07;;;;;;;1.94;78.06;96582.00;5050864;28;20487;-47
2020/12/18 00:09:20;;;;;;;21.15;13.57;;;;;;;2.03;78.34;96577.78;5042028;28;20123;-46
2020/12/18 00:11:47;;;;;;;18.05;12.90;;;;;;;2.14;77.76;96578.59;5035294;28;20077;-45
2020/12/18 00:14:14;;;;;;;17.05;11.88;;;;;;;2.26;77.32;96575.72;5034284;28;20502;-44
2020/12/18 00:16:40;;;;;;;19.40;12.70;;;;;;;2.26;77.20;96565.03;5044533;28;20060;-49
2020/12/18 00:19:08;;;;;;;18.60;11.88;;;;;;;2.33;76.94;96566.38;5044026;28;20045;-48
2020/12/18 00:21:36;;;;;;;19.02;13.40;;;;;;;2.51;76.33;96572.31;5054878;28;20053;-47
2020/12/18 00:24:04;;;;;;;17.42;12.48;;;;;;;2.64;75.64;96573.66;5053324;28;20088;-49
2020/12/18 00:26:35;;;;;;;18.55;12.27;;;;;;;2.66;75.04;96572.31;5054243;28;20045;-49
2020/12/18 00:29:03;;;;;;;16.63;12.52;;;;;;;2.58;74.80;96578.97;5037634;28;20045;-49
2020/12/18 00:31:31;;;;;;;17.58;14.02;;;;;;;2.57;75.64;96576.59;5054000;28;20514;-48
2020/12/18 00:33:59;;;;;;;16.38;11.88;;;;;;;2.60;74.97;96577.91;5054609;28;20132;-49
2020/12/18 00:36:26;;;;;;;18.30;12.82;;;;;;;2.36;74.51;96574.94;5054191;28;20049;-47
2020/12/18 00:38:54;;;;;;;19.42;14.07;;;;;;;1.03;80.59;96593.75;5053664;28;20057;-48
2020/12/18 00:41:21;;;;;;;20.60;14.25;;;;;;;0.87;82.32;96595.47;5053957;28;20049;-48
2020/12/18 00:43:50;;;;;;;18.20;13.38;;;;;;;1.18;80.95;96601.06;5055112;28;20083;-48
2020/12/18 00:46:20;;;;;;;17.75;12.50;;;;;;;1.36;79.85;96587.31;5037540;28;20178;-47
2020/12/18 00:48:51;;;;;;;20.45;14.30;;;;;;;1.53;78.63;96587.16;5055925;28;20091;-49
2020/12/18 00:51:19;;;;;;;20.58;13.15;;;;;;;1.42;79.54;96585.47;5053687;28;20056;-47
2020/12/18 00:53:49;;;;;;;18.85;13.32;;;;;;;1.62;79.09;96580.25;5053672;28;20127;-48
2020/12/18 00:56:16;;;;;;;17.38;12.15;;;;;;;1.83;78.21;96586.50;5020278;28;20045;-48
2020/12/18 00:58:45;;;;;;;30.50;15.20;;;;;;;1.21;80.14;96586.44;5053450;28;20418;-47
2020/12/18 01:01:20;;;;;;;17.85;12.68;;;;;;;1.39;80.38;96592.13;5054739;28;20047;-47
2020/12/18 01:03:48;;;;;;;19.13;13.77;;;;;;;1.74;78.65;96600.59;5054070;28;20463;-46
2020/12/18 01:06:18;;;;;;;18.65;12.00;;;;;;;1.80;77.92;96594.22;5051953;28;20449;-48
2020/12/18 01:08:58;;;;;;;17.75;10.52;;;;;;;1.81;77.59;96585.94;5052467;28;20056;-47
2020/12/18 01:11:32;;;;;;;20.65;11.38;;;;;;;1.78;76.79;96607.81;5053759;28;20049;-48
2020/12/18 01:14:00;;;;;;;26.80;11.70;;;;;;;1.33;78.24;96603.84;5054105;28;20087;-50
2020/12/18 01:16:28;;;;;;;13.75;10.20;;;;;;;1.47;78.47;96608.72;5053382;28;20147;-50
2020/12/18 01:18:59;;;;;;;13.18;9.45;;;;;;;1.69;77.84;96608.56;5053117;28;20114;-48
2020/12/18 01:21:32;;;;;;;13.65;9.10;;;;;;;1.92;76.87;96610.84;5021102;28;20069;-49
2020/12/18 01:24:03;;;;;;;30.60;10.10;;;;;;;2.12;75.38;96595.97;5036731;28;20052;-50
2020/12/18 01:26:33;;;;;;;13.38;10.02;;;;;;;1.98;75.57;96607.13;5053088;28;20040;-50
2020/12/18 01:29:04;;;;;;;11.57;9.15;;;;;;;2.07;75.36;96580.72;5053484;28;20048;-48
2020/12/18 01:31:34;;;;;;;12.27;9.07;;;;;;;2.03;75.66;96598.31;5036496;28;20045;-47
2020/12/18 01:34:02;;;;;;;12.63;9.32;;;;;;;1.93;75.85;96582.28;5053383;28;20053;-48
2020/12/18 01:36:32;;;;;;;12.45;9.55;;;;;;;2.11;75.45;96595.13;5053281;28;20045;-48
2020/12/18 01:39:12;;;;;;;12.60;9.98;;;;;;;2.07;75.05;96578.84;5052670;28;20452;-48
2020/12/18 01:41:40;;;;;;;13.38;10.10;;;;;;;2.21;74.73;96583.69;5052362;28;20049;-49
2020/12/18 01:44:11;;;;;;;11.65;8.75;;;;;;;2.34;74.49;96592.03;5036718;28;20045;-48
2020/12/18 01:46:42;;;;;;;13.13;10.30;;;;;;;2.35;74.31;96587.50;5019967;28;20044;-47
2020/12/18 01:49:10;;;;;;;15.75;11.73;;;;;;;2.17;74.71;96585.28;5053402;28;20045;-51
2020/12/18 01:51:49;;;;;;;14.65;11.35;;;;;;;1.93;76.51;96590.28;5052373;28;20084;-47
2020/12/18 01:54:37;;;;;;;14.23;10.52;;;;;;;1.65;77.65;96597.59;5053205;28;20049;-49
2020/12/18 01:57:05;;;;;;;14.32;10.63;;;;;;;1.72;77.09;96581.38;5051700;28;20033;-48
2020/12/18 01:59:46;;;;;;;16.55;11.13;;;;;;;1.84;76.05;96579.28;5052342;28;20075;-48
2020/12/18 02:02:22;;;;;;;15.38;11.48;;;;;;;1.71;76.76;96593.09;5037024;28;20502;-49
2020/12/18 02:05:04;;;;;;;16.83;11.35;;;;;;;1.82;76.43;96582.25;5051886;28;20414;-49
2020/12/18 02:07:36;;;;;;;13.68;10.40;;;;;;;1.93;76.37;96587.63;5051840;28;20482;-51
2020/12/18 02:10:26;;;;;;;12.10;9.18;;;;;;;2.04;75.67;96567.91;5052759;28;20048;-49
2020/12/18 02:12:54;;;;;;;13.13;9.40;;;;;;;2.20;75.65;96572.22;5036463;28;20049;-49
2020/12/18 02:15:22;;;;;;;12.23;9.38;;;;;;;2.23;75.65;96566.34;5052056;28;20371;-49
2020/12/18 02:18:24;;;;;;;11.40;8.73;;;;;;;2.41;75.37;96566.94;5025255;28;20625;-47
2020/12/18 02:20:52;;;;;;;12.05;9.35;;;;;;;2.48;74.81;96557.59;5035826;28;20473;-44
2020/12/18 02:23:21;;;;;;;11.30;8.45;;;;;;;2.53;74.81;96548.78;5051008;28;20045;-45
2020/12/18 02:26:04;;;;;;;12.25;9.27;;;;;;;2.74;73.55;96560.31;5050992;28;20070;-43
2020/12/18 02:28:37;;;;;;;12.48;9.77;;;;;;;2.33;75.05;96560.22;5051445;28;20445;-45
2020/12/18 02:31:08;;;;;;;12.05;9.00;;;;;;;2.46;75.38;96554.38;5035776;28;20135;-44
2020/12/18 02:33:43;;;;;;;11.20;9.20;;;;;;;2.59;74.63;96545.06;5052866;28;20402;-44
2020/12/18 02:36:26;;;;;;;12.35;9.52;;;;;;;2.62;74.30;96551.75;5050563;28;20128;-46
2020/12/18 02:39:00;;;;;;;12.77;9.70;;;;;;;2.39;75.17;96548.50;5035333;28;20502;-45
2020/12/18 02:41:30;;;;;;;13.85;9.90;;;;;;;2.23;75.90;96541.53;5019407;28;20055;-44
2020/12/18 02:44:05;;;;;;;14.13;10.23;;;;;;;2.28;75.95;96568.25;5021175;28;20045;-44
2020/12/18 02:46:38;;;;;;;13.73;10.13;;;;;;;2.16;75.93;96549.78;5034167;28;20041;-47
2020/12/18 02:49:06;;;;;;;14.13;10.48;;;;;;;2.03;76.78;96560.97;5052421;28;20059;-48
2020/12/18 02:51:44;;;;;;;13.70;10.25;;;;;;;2.18;76.31;96557.53;5052389;28;20053;-49
2020/12/18 02:54:35;;;;;;;14.32;10.65;;;;;;;2.20;76.13;96563.41;5046725;28;20048;-43
2020/12/18 02:57:21;;;;;;;15.27;10.45;;;;;;;2.02;77.05;96565.50;5051497;28;20045;-43
2020/12/18 03:00:00;;;;;;;11.38;9.10;;;;;;;2.18;76.85;96553.00;5036333;28;20135;-47
2020/12/18 03:02:31;;;;;;;12.52;9.32;;;;;;;2.38;76.07;96551.44;5051035;28;20041;-44
2020/12/18 03:04:58;;;;;;;12.00;9.25;;;;;;;2.60;75.20;96553.88;5051829;28;20057;-43
2020/12/18 03:07:42;;;;;;;11.48;9.07;;;;;;;2.55;75.38;96562.69;5052074;28;20053;-44
2020/12/18 03:10:11;;;;;;;10.93;9.05;;;;;;;2.55;75.39;96552.00;5050742;28;20123;-47
2020/12/18 03:12:39;;;;;;;10.98;9.13;;;;;;;2.58;75.27;96560.28;5050868;28;20060;-45
2020/12/18 03:15:07;;;;;;;12.05;9.43;;;;;;;2.61;74.84;96550.94;5034208;28;20053;-44
2020/12/18 03:17:53;;;;;;;11.45;8.73;;;;;;;2.72;74.23;96554.41;5051006;28;20095;-45
2020/12/18 03:20:20;;;;;;;11.30;8.75;;;;;;;2.75;74.37;96545.88;5051967;28;20048;-44
2020/12/18 03:23:11;;;;;;;10.20;8.50;;;;;;;2.87;73.67;96545.63;5051527;28;20049;-45
2020/12/18 03:26:17;;;;;;;11.52;8.02;;;;;;;2.88;73.70;96548.00;4978617;28;20054;-44
2020/12/18 03:28:57;;;;;;;11.07;8.30;;;;;;;2.91;73.60;96550.13;4974266;28;20049;-43
2020/12/18 03:31:27;;;;;;;10.82;8.45;;;;;;;2.96;72.99;96546.69;5026062;28;20049;-44
2020/12/18 03:33:55;;;;;;;9.48;7.90;;;;;;;3.00;73.14;96543.19;5050337;28;20438;-44
2020/12/18 03:36:36;;;;;;;10.45;8.45;;;;;;;3.04;72.90;96543.44;5050001;28;20052;-48
2020/12/18 03:39:08;;;;;;;10.40;8.60;;;;;;;2.99;73.23;96541.59;5050351;28;20049;-47
2020/12/18 03:41:42;;;;;;;10.82;8.45;;;;;;;3.02;73.32;96543.75;5050530;28;20536;-44
2020/12/18 03:44:11;;;;;;;9.98;7.68;;;;;;;3.10;73.28;96541.59;5050381;28;20095;-48
2020/12/18 03:46:38;;;;;;;10.77;8.38;;;;;;;2.94;73.36;96552.28;5049923;28;20055;-47
2020/12/18 03:49:13;;;;;;;11.52;9.00;;;;;;;2.86;74.28;96541.31;5050515;28;20052;-46
2020/12/18 03:51:48;;;;;;;10.90;8.75;;;;;;;2.93;73.59;96548.00;5053948;28;20095;-43
2020/12/18 03:54:23;;;;;;;10.82;8.55;;;;;;;2.94;73.94;96540.78;5054349;28;20053;-47
2020/12/18 03:57:09;;;;;;;10.52;8.05;;;;;;;2.94;74.23;96544.25;5053450;28;20049;-47
2020/12/18 03:59:52;;;;;;;12.13;9.02;;;;;;;3.08;73.46;96539.16;5040322;28;20045;-45
2020/12/18 04:02:39;;;;;;;10.35;8.10;;;;;;;3.19;73.27;96542.66;5055525;28;20506;-45
2020/12/18 04:05:09;;;;;;;10.82;8.68;;;;;;;3.22;73.07;96539.44;5038327;28;20072;-45
2020/12/18 04:07:37;;;;;;;10.73;8.60;;;;;;;3.21;73.50;96541.28;5053395;28;20555;-44
2020/12/18 04:10:16;;;;;;;9.95;8.15;;;;;;;3.29;73.17;96550.66;5054291;28;20509;-47
2020/12/18 04:13:02;;;;;;;10.85;8.50;;;;;;;3.18;72.63;96557.06;5054199;28;20057;-45
2020/12/18 04:15:30;;;;;;;11.23;8.93;;;;;;;2.30;75.94;96566.09;5052971;28;20053;-49
2020/12/18 04:17:57;;;;;;;11.20;8.90;;;;;;;1.82;79.47;96568.91;5054117;28;20057;-44
2020/12/18 04:20:24;;;;;;;11.20;8.57;;;;;;;2.04;79.14;96568.69;5053842;28;20073;-44
2020/12/18 04:23:12;;;;;;;10.40;8.20;;;;;;;2.50;77.21;96563.50;5054056;28;20140;-48
2020/12/18 04:26:12;;;;;;;10.15;7.95;;;;;;;2.80;75.75;96556.56;5042519;28;20056;-45
2020/12/18 04:28:39;;;;;;;12.50;8.82;;;;;;;2.94;75.10;96568.31;5037400;28;20143;-48
2020/12/18 04:31:07;;;;;;;9.38;7.80;;;;;;;3.01;75.00;96560.03;5053858;28;20075;-45
2020/12/18 04:33:35;;;;;;;10.93;8.55;;;;;;;2.92;74.92;96575.78;5053455;28;20102;-44
2020/12/18 04:36:02;;;;;;;11.45;8.90;;;;;;;2.78;75.33;96567.50;5052873;28;20037;-44
2020/12/18 04:38:33;;;;;;;12.07;9.65;;;;;;;2.04;78.20;96560.69;5053339;28;20136;-48
2020/12/18 04:41:06;;;;;;;14.23;10.35;;;;;;;1.98;78.76;96567.09;5037926;28;20164;-44
2020/12/18 04:43:44;;;;;;;13.90;10.88;;;;;;;1.87;78.95;96568.09;5037100;28;20041;-46
2020/12/18 04:46:21;;;;;;;13.50;10.77;;;;;;;1.78;79.83;96562.47;5053045;28;20052;-44
2020/12/18 04:48:49;;;;;;;12.23;9.20;;;;;;;1.98;79.05;96561.75;5053575;28;20544;-44
2020/12/18 04:51:25;;;;;;;13.55;9.90;;;;;;;2.42;77.28;96563.19;5053280;28;20052;-46
2020/12/18 04:54:09;;;;;;;13.45;9.27;;;;;;;2.37;76.64;96547.94;5053287;28;20102;-44
2020/12/18 04:56:51;;;;;;;13.60;10.55;;;;;;;2.67;75.87;96562.44;5053725;28;20045;-45
2020/12/18 04:59:27;;;;;;;11.55;8.40;;;;;;;2.75;75.58;96567.25;5053151;28;20052;-45
2020/12/18 05:02:02;;;;;;;10.73;8.48;;;;;;;2.77;75.03;96557.91;5052570;28;20135;-45
2020/12/18 05:04:40;;;;;;;11.93;9.55;;;;;;;2.86;74.39;96568.03;5053033;28;20087;-46
2020/12/18 05:07:43;;;;;;;14.10;10.15;;;;;;;2.50;75.46;96566.16;5045597;28;20414;-47
2020/12/18 05:10:11;;;;;;;14.52;9.13;;;;;;;2.56;75.40;96573.09;5052876;28;20080;-44
2020/12/18 05:12:56;;;;;;;13.48;9.68;;;;;;;2.73;74.29;96566.69;5054446;28;20061;-46
2020/12/18 05:15:37;;;;;;;12.00;9.13;;;;;;;2.72;74.04;96571.25;5037588;28;20044;-48
2020/12/18 05:18:30;;;;;;;11.30;9.00;;;;;;;2.71;74.12;96574.19;5054342;28;20150;-46
2020/12/18 05:21:01;;;;;;;11.05;8.45;;;;;;;2.81;73.75;96576.88;5052779;28;20053;-46
2020/12/18 05:23:46;;;;;;;10.77;8.48;;;;;;;2.85;73.49;96564.56;5053045;28;20080;-46
2020/12/18 05:26:19;;;;;;;10.07;7.78;;;;;;;2.69;73.86;96569.09;5052115;28;20501;-47
2020/12/18 05:29:03;;;;;;;10.82;8.00;;;;;;;2.61;74.35;96572.31;5052974;28;20045;-48
2020/12/18 05:31:34;;;;;;;11.40;8.02;;;;;;;2.52;74.20;96572.03;5053043;28;20102;-49
2020/12/18 05:34:24;;;;;;;12.38;8.43;;;;;;;2.30;74.76;96568.78;5050078;28;20146;-46
2020/12/18 05:37:16;;;;;;;12.15;8.13;;;;;;;2.40;74.81;96574.13;5053357;28;20055;-47
2020/12/18 05:39:56;;;;;;;9.98;7.85;;;;;;;2.48;74.44;96578.16;5038127;28;20056;-46
2020/12/18 05:42:48;;;;;;;11.32;8.05;;;;;;;2.50;74.17;96584.84;5046230;28;20051;-46
2020/12/18 05:45:26;;;;;;;11.95;8.55;;;;;;;2.56;73.74;96582.97;5051838;28;20132;-47
2020/12/18 05:48:16;;;;;;;10.70;8.80;;;;;;;2.56;73.66;96586.44;5053514;28;20057;-47
2020/12/18 05:50:56;;;;;;;10.80;8.25;;;;;;;2.54;73.78;96593.16;5052518;28;20049;-48
2020/12/18 05:53:25;;;;;;;9.27;7.55;;;;;;;2.69;73.51;96595.81;5053096;28;20057;-47
2020/12/18 05:56:03;;;;;;;10.30;7.82;;;;;;;2.81;72.78;96595.56;5051639;28;20077;-48
2020/12/18 05:58:39;;;;;;;10.50;8.23;;;;;;;2.89;72.38;96589.69;5052162;28;20063;-49
2020/12/18 06:01:30;;;;;;;10.30;8.10;;;;;;;2.95;72.38;96585.94;5053756;28;20044;-48
2020/12/18 06:04:17;;;;;;;10.57;7.60;;;;;;;2.96;72.06;96590.25;5053367;28;20072;-50
2020/12/18 06:06:52;;;;;;;9.40;7.30;;;;;;;2.95;71.94;96591.28;5051517;28;20512;-48
2020/12/18 06:09:39;;;;;;;11.80;8.32;;;;;;;2.92;71.57;96596.38;5053196;28;20091;-47
2020/12/18 06:12:10;;;;;;;10.35;8.30;;;;;;;2.93;71.72;96606.81;5051981;28;20135;-49
2020/12/18 06:14:37;;;;;;;11.02;9.02;;;;;;;2.68;72.27;96604.91;5052165;28;20522;-47
2020/12/18 06:17:12;;;;;;;11.80;9.15;;;;;;;2.54;72.83;96593.16;5050961;28;20044;-47
2020/12/18 06:19:58;;;;;;;10.75;8.73;;;;;;;2.56;72.88;96602.47;5053297;28;20052;-47
2020/12/18 06:22:35;;;;;;;14.05;9.25;;;;;;;2.45;72.76;96595.53;5051711;28;20044;-48
2020/12/18 06:25:17;;;;;;;11.82;9.23;;;;;;;2.33;72.96;96592.28;5050509;28;20045;-47
2020/12/18 06:28:03;;;;;;;12.48;9.60;;;;;;;2.22;73.80;96598.66;5052826;28;20059;-48
2020/12/18 06:31:33;;;;;;;12.63;9.55;;;;;;;1.95;75.11;96602.31;5021975;28;20049;-49
2020/12/18 06:34:27;;;;;;;12.85;8.93;;;;;;;1.77;75.53;96602.75;5052421;28;20499;-47
2020/12/18 06:37:30;;;;;;;15.13;10.07;;;;;;;1.53;76.38;96607.69;5051682;28;20130;-44
2020/12/18 06:40:32;;;;;;;13.93;10.13;;;;;;;1.61;76.33;96601.84;5039279;28;20124;-44
2020/12/18 06:43:12;;;;;;;13.77;9.88;;;;;;;1.78;75.55;96599.81;5052393;28;20570;-47
2020/12/18 06:46:06;;;;;;;15.35;10.40;;;;;;;1.97;74.99;96597.50;5050977;28;20186;-46
2020/12/18 06:49:12;;;;;;;14.48;10.35;;;;;;;2.06;74.80;96603.94;4952124;29;20421;-47
2020/12/18 06:51:58;;;;;;;12.10;8.82;;;;;;;2.18;74.51;96610.91;4952232;29;20051;-47
2020/12/18 06:54:34;;;;;;;12.32;9.15;;;;;;;2.30;74.31;96614.16;5018249;28;20045;-49
2020/12/18 06:57:20;;;;;;;13.88;9.27;;;;;;;2.43;73.72;96616.34;5050582;28;20518;-47
2020/12/18 06:59:50;;;;;;;17.58;11.73;;;;;;;2.25;73.43;96603.47;5052496;28;20584;-48
2020/12/18 07:02:49;;;;;;;17.42;10.80;;;;;;;2.25;74.48;96617.63;5050786;28;20052;-48
2020/12/18 07:05:35;;;;;;;17.17;10.35;;;;;;;2.04;74.34;96616.72;5028682;28;20049;-48
2020/12/18 07:08:07;;;;;;;13.98;9.43;;;;;;;1.93;75.58;96619.63;5051731;28;20128;-48
2020/12/18 07:10:39;;;;;;;14.65;10.07;;;;;;;1.94;75.44;96626.56;5051653;28;20048;-48
2020/12/18 07:13:08;;;;;;;14.50;10.32;;;;;;;1.80;75.55;96620.91;5052364;28;20055;-47
2020/12/18 07:15:47;;;;;;;12.32;9.20;;;;;;;2.00;75.52;96623.66;5051389;28;20135;-46
2020/12/18 07:18:20;;;;;;;13.70;9.93;;;;;;;2.15;74.67;96625.59;5051629;28;20137;-50
2020/12/18 07:21:07;;;;;;;15.38;10.38;;;;;;;2.16;74.93;96623.75;5051482;28;20045;-49
2020/12/18 07:23:36;;;;;;;13.43;10.40;;;;;;;2.20;74.90;96630.94;5050076;28;20640;-50
2020/12/18 07:26:04;;;;;;;12.63;9.80;;;;;;;2.23;74.86;96624.28;5050464;28;20061;-49
2020/12/18 07:28:32;;;;;;;12.15;8.60;;;;;;;2.26;74.65;96621.09;5051175;28;20136;-47
2020/12/18 07:30:59;;;;;;;13.75;9.27;;;;;;;2.33;74.33;96633.13;5051371;28;20524;-50
2020/12/18 07:33:26;;;;;;;13.02;9.38;;;;;;;2.30;74.84;96627.50;5051172;28;20108;-45
2020/12/18 07:35:56;;;;;;;12.95;9.73;;;;;;;2.40;74.27;96616.84;5051025;28;20106;-46
2020/12/18 07:38:33;;;;;;;14.18;9.45;;;;;;;2.55;73.76;96618.78;5051162;28;20053;-45
2020/12/18 07:41:01;;;;;;;14.02;9.60;;;;;;;2.55;73.70;96616.09;5051107;28;20418;-45
2020/12/18 07:43:31;;;;;;;14.18;9.93;;;;;;;2.56;73.68;96605.16;5051989;28;20060;-47
2020/12/18 07:46:03;;;;;;;12.38;9.25;;;;;;;2.65;73.51;96612.66;5050172;28;20044;-47
2020/12/18 07:48:32;;;;;;;12.13;9.13;;;;;;;2.50;74.16;96616.09;5051470;28;20057;-48
2020/12/18 07:51:08;;;;;;;12.32;9.32;;;;;;;2.46;74.56;96615.00;5051536;28;20056;-48
2020/12/18 07:53:37;;;;;;;13.90;9.13;;;;;;;2.40;74.86;96608.06;5051226;28;20063;-44
2020/12/18 07:56:12;;;;;;;13.38;9.20;;;;;;;2.46;74.54;96601.66;5050610;28;20056;-44
2020/12/18 07:58:52;;;;;;;13.02;9.40;;;;;;;2.68;74.37;96604.91;5051700;28;20052;-47
2020/12/18 08:01:21;;;;;;;12.00;8.60;;;;;;;2.71;73.88;96609.72;5051038;28;20132;-46
2020/12/18 08:03:52;;;;;;;12.43;8.75;;;;;;;2.67;74.13;96603.31;5050935;28;20056;-46
2020/12/18 08:06:21;;;;;;;13.52;9.35;;;;;;;2.84;73.84;96605.75;5050333;28;20123;-46
2020/12/18 08:08:49;;;;;;;12.50;9.65;;;;;;;2.98;73.17;96604.13;5051219;28;20099;-46
2020/12/18 08:11:17;;;;;;;13.25;9.32;;;;;;;3.04;72.59;96588.91;5051876;28;20088;-45
2020/12/18 08:13:44;;;;;;;12.15;8.73;;;;;;;3.07;72.84;96607.09;5050952;28;20049;-47
2020/12/18 08:16:19;;;;;;;14.65;10.18;;;;;;;3.03;73.00;96603.34;5050417;28;20081;-46
2020/12/18 08:18:51;;;;;;;14.63;10.50;;;;;;;3.00;73.44;96603.88;5050380;28;20048;-47
2020/12/18 08:21:23;;;;;;;12.38;9.63;;;;;;;3.17;73.17;96600.94;5031265;28;20133;-44
2020/12/18 08:23:59;;;;;;;13.18;8.82;;;;;;;3.23;73.12;96614.03;5037520;28;20053;-44
2020/12/18 08:26:32;;;;;;;14.15;10.30;;;;;;;3.46;72.19;96593.94;5041488;28;20194;-48
2020/12/18 08:29:00;;;;;;;12.85;9.27;;;;;;;3.47;72.15;96595.53;5050877;28;20080;-47
2020/12/18 08:31:30;;;;;;;13.15;9.13;;;;;;;3.47;72.38;96598.22;5050976;28;20098;-48
2020/12/18 08:34:06;;;;;;;13.60;9.60;;;;;;;3.56;72.58;96595.81;5050659;28;20060;-49
2020/12/18 08:36:39;;;;;;;15.23;10.27;;;;;;;3.74;71.89;96592.56;5050282;28;20048;-49
2020/12/18 08:39:07;;;;;;;13.20;9.50;;;;;;;3.67;72.18;96586.69;5054594;28;20059;-45
2020/12/18 08:41:41;;;;;;;12.35;9.32;;;;;;;3.89;71.68;96586.34;5054573;28;20053;-46
2020/12/18 08:44:09;;;;;;;13.88;9.32;;;;;;;3.99;71.29;96580.13;5054289;28;20144;-49
2020/12/18 08:46:37;;;;;;;13.25;9.55;;;;;;;4.07;71.10;96579.59;5053673;28;20475;-47
2020/12/18 08:49:13;;;;;;;13.23;9.57;;;;;;;4.20;70.83;96587.03;5054260;28;20076;-49
2020/12/18 08:51:41;;;;;;;13.60;9.00;;;;;;;4.06;71.33;96579.84;5054286;28;20428;-47
2020/12/18 08:54:31;;;;;;;15.15;10.63;;;;;;;4.14;71.44;96595.34;5054327;28;20072;-47
2020/12/18 08:57:17;;;;;;;15.60;10.20;;;;;;;4.21;71.11;96588.63;5052670;28;20040;-44
2020/12/18 09:00:17;;;;;;;16.02;10.80;;;;;;;4.25;71.30;96586.19;5054542;28;20095;-49
2020/12/18 09:02:58;;;;;;;14.77;10.02;;;;;;;4.29;71.43;96587.25;5020853;28;20105;-48
2020/12/18 09:05:24;;;;;;;15.05;10.40;;;;;;;4.36;70.84;96590.44;5053260;28;20045;-44
2020/12/18 09:07:52;;;;;;;13.63;9.82;;;;;;;4.50;70.77;96595.19;5053762;28;20156;-45
2020/12/18 09:10:40;;;;;;;13.77;10.57;;;;;;;4.78;69.57;96591.78;5053916;28;20468;-45
2020/12/18 09:13:08;;;;;;;16.38;10.32;;;;;;;4.81;69.68;96598.47;5054061;28;20053;-45
2020/12/18 09:15:35;;;;;;;12.98;9.73;;;;;;;4.86;69.09;96587.72;5053374;28;21166;-45
2020/12/18 09:18:10;;;;;;;16.00;10.63;;;;;;;5.02;68.79;96593.75;5053691;28;20056;-44
2020/12/18 09:20:42;;;;;;;14.20;10.43;;;;;;;5.08;68.24;96589.97;5053878;28;20081;-48
2020/12/18 09:23:14;;;;;;;17.45;10.40;;;;;;;5.00;68.33;96580.63;5048314;28;20053;-50
2020/12/18 09:25:50;;;;;;;15.55;9.70;;;;;;;4.95;68.87;96585.25;5049806;28;20048;-46
2020/12/18 09:28:17;;;;;;;13.98;10.60;;;;;;;4.90;69.12;96581.50;5051687;28;20072;-44
2020/12/18 09:30:58;;;;;;;13.13;9.93;;;;;;;4.85;69.18;96580.75;5053752;28;20080;-44
2020/12/18 09:33:32;;;;;;;13.77;10.43;;;;;;;4.85;69.75;96586.13;5053643;28;20118;-45
2020/12/18 09:36:06;;;;;;;16.42;10.23;;;;;;;5.10;69.23;96585.94;5052694;28;20052;-45
2020/12/18 09:38:44;;;;;;;13.85;10.32;;;;;;;5.30;68.53;96584.94;5052972;28;20063;-45
2020/12/18 09:41:14;;;;;;;15.68;10.38;;;;;;;5.41;68.04;96584.84;5053302;28;20044;-46
2020/12/18 09:43:40;;;;;;;13.27;9.52;;;;;;;5.61;66.92;96573.91;5053515;28;20131;-46
2020/12/18 09:46:14;;;;;;;16.88;10.13;;;;;;;5.55;67.11;96573.16;5035612;28;20140;-47
2020/12/18 09:48:42;;;;;;;12.85;9.80;;;;;;;5.63;67.13;96569.06;5032767;28;20049;-46
2020/12/18 09:51:08;;;;;;;13.57;10.70;;;;;;;5.74;66.78;96575.91;5033342;28;20141;-45
2020/12/18 09:53:35;;;;;;;17.58;10.27;;;;;;;5.68;66.98;96574.38;5032509;28;20061;-47
2020/12/18 09:56:02;;;;;;;13.07;10.25;;;;;;;5.75;67.16;96572.16;5032640;28;20091;-45
2020/12/18 09:58:29;;;;;;;15.95;10.45;;;;;;;5.82;66.62;96572.63;5032023;28;20137;-45
2020/12/18 10:00:55;;;;;;;13.75;11.00;;;;;;;5.72;67.26;96566.53;5032973;28;20156;-46
2020/12/18 10:03:22;;;;;;;15.05;10.80;;;;;;;5.86;66.94;96576.31;5049256;28;20414;-47
2020/12/18 10:05:49;;;;;;;17.10;11.23;;;;;;;5.86;66.09;96568.25;5040319;28;20048;-45
2020/12/18 10:08:17;;;;;;;13.68;10.15;;;;;;;5.93;65.54;96567.16;5051588;28;20090;-46
2020/12/18 10:10:44;;;;;;;12.77;10.02;;;;;;;6.02;65.01;96584.25;5052860;28;20063;-48
2020/12/18 10:13:10;;;;;;;14.52;10.73;;;;;;;6.11;65.22;96565.59;5052801;28;20506;-45
2020/12/18 10:15:36;;;;;;;13.77;10.25;;;;;;;6.10;64.90;96562.09;5043508;28;20057;-44
2020/12/18 10:18:03;;;;;;;16.15;10.30;;;;;;;6.17;64.80;96562.53;5044884;28;20142;-44
2020/12/18 10:20:30;;;;;;;13.43;9.98;;;;;;;6.39;63.64;96562.00;5033262;28;20105;-45
2020/12/18 10:22:56;;;;;;;12.88;8.93;;;;;;;6.08;64.09;96559.72;5037713;28;20045;-45
2020/12/18 10:25:23;;;;;;;12.90;9.63;;;;;;;6.10;63.79;96556.72;5047614;28;20131;-44
2020/12/18 10:27:49;;;;;;;14.82;9.27;;;;;;;5.85;65.75;96555.94;5050062;28;20041;-44
2020/12/18 10:30:16;;;;;;;13.85;9.05;;;;;;;5.96;65.17;96550.47;5032382;28;20053;-44
2020/12/18 10:32:42;;;;;;;10.98;8.75;;;;;;;6.06;64.17;96544.97;5031648;28;20471;-47
2020/12/18 10:35:09;;;;;;;11.63;8.27;;;;;;;5.97;65.70;96535.94;5033520;28;20396;-44
2020/12/18 10:37:36;;;;;;;11.55;8.43;;;;;;;6.23;64.99;96550.66;5051807;28;20052;-44
2020/12/18 10:40:04;;;;;;;11.15;8.57;;;;;;;6.51;64.25;96542.75;5049690;28;20057;-48
2020/12/18 10:42:32;;;;;;;12.05;8.13;;;;;;;6.69;62.61;96536.56;5031708;28;20140;-46
2020/12/18 10:44:58;;;;;;;9.93;7.30;;;;;;;6.57;62.30;96541.59;5031535;28;20054;-44
2020/12/18 10:47:26;;;;;;;11.88;7.47;;;;;;;6.31;63.94;96533.88;5031313;28;20124;-47
2020/12/18 10:49:52;;;;;;;10.73;7.80;;;;;;;6.60;63.70;96538.31;5031822;28;20049;-44
2020/12/18 10:52:21;;;;;;;14.23;7.50;;;;;;;6.66;63.45;96531.78;5032591;28;20518;-45
2020/12/18 10:54:47;;;;;;;9.98;7.30;;;;;;;6.71;62.57;96541.66;5030249;28;20058;-45
2020/12/18 10:57:13;;;;;;;11.25;7.53;;;;;;;6.72;63.49;96524.41;5031251;28;20041;-47
2020/12/18 10:59:43;;;;;;;8.55;6.65;;;;;;;6.66;64.24;96533.66;5031127;28;20061;-44
2020/12/18 11:02:10;;;;;;;11.90;7.05;;;;;;;6.79;63.96;96525.66;5037918;28;20546;-48
2020/12/18 11:04:37;;;;;;;9.13;6.85;;;;;;;6.96;62.79;96527.81;5043888;28;20045;-44
2020/12/18 11:07:03;;;;;;;11.02;7.63;;;;;;;7.08;63.47;96532.72;5051101;28;20041;-46
2020/12/18 11:09:30;;;;;;;9.55;6.95;;;;;;;7.18;62.32;96532.56;5048224;28;20124;-47
2020/12/18 11:11:57;;;;;;;13.32;7.95;;;;;;;7.38;62.04;96525.22;5031242;28;20080;-48
2020/12/18 11:14:24;;;;;;;11.38;7.10;;;;;;;7.29;61.07;96521.63;5032336;28;20057;-45
2020/12/18 11:16:54;;;;;;;9.82;6.63;;;;;;;7.31;61.81;96519.41;5031287;28;20137;-45
2020/12/18 11:19:21;;;;;;;8.75;6.85;;;;;;;7.95;60.97;96523.03;5031711;28;20060;-46
2020/12/18 11:21:47;;;;;;;12.75;7.10;;;;;;;8.14;59.29;96518.34;5030389;28;20057;-49
2020/12/18 11:24:15;;;;;;;9.45;6.72;;;;;;;8.65;57.86;96519.94;5032098;28;20473;-45
2020/12/18 11:26:42;;;;;;;10.68;7.88;;;;;;;9.22;58.39;96505.88;5035580;28;20041;-46
2020/12/18 11:29:12;;;;;;;10.38;7.30;;;;;;;9.01;57.25;96511.00;5051111;28;20449;-45
2020/12/18 11:31:39;;;;;;;13.52;7.57;;;;;;;8.94;57.54;96502.53;5051583;28;20076;-46
2020/12/18 11:34:06;;;;;;;8.35;7.05;;;;;;;9.19;56.70;96506.50;5051272;28;20103;-45
2020/12/18 11:36:36;;;;;;;11.38;7.25;;;;;;;9.31;55.83;96492.44;5050747;28;20124;-46
2020/12/18 11:39:04;;;;;;;11.00;7.50;;;;;;;9.23;57.00;96502.09;5051342;28;20126;-49
2020/12/18 11:41:33;;;;;;;12.27;7.50;;;;;;;9.31;56.75;96503.22;5051143;28;20076;-47
2020/12/18 11:44:00;;;;;;;10.32;7.00;;;;;;;9.91;56.86;96500.00;5043692;28;20053;-46
2020/12/18 11:46:27;;;;;;;9.63;7.28;;;;;;;10.69;53.80;96500.13;5029761;28;20107;-46
2020/12/18 11:48:53;;;;;;;8.30;6.78;;;;;;;10.59;53.03;96494.22;5031273;28;20515;-45
2020/12/18 11:51:27;;;;;;;14.10;7.20;;;;;;;10.95;53.26;96491.16;5035191;28;20529;-46
2020/12/18 11:53:53;;;;;;;10.32;6.65;;;;;;;9.73;54.78;96493.72;5041897;28;20065;-47
2020/12/18 11:56:20;;;;;;;10.15;7.45;;;;;;;9.51;55.85;96491.09;5030981;28;20132;-45
2020/12/18 11:58:46;;;;;;;12.13;7.25;;;;;;;9.38;56.99;96492.78;5044705;28;20053;-49
2020/12/18 12:01:21;;;;;;;10.88;7.03;;;;;;;9.25;57.17;96489.06;5044042;28;20125;-46
2020/12/18 12:03:52;;;;;;;9.68;6.55;;;;;;;9.41;57.60;96484.06;5031458;28;20084;-48